Beslan Airport
URMO : now visible

Airfield :











YOU CAN JOIN US ON...

 
LOGIN :

Register | Disclaimer

   EN    FR    IT 

 









Legend :    VFR   Marginal VFR   IFR   Intensive IFR   Very Intensive IFR
Visi :
Ceiling :
>= 8 km
>= 3000ft
5 to 8 km
1000 to 3000 ft
1500m to 5 km
500 to 1000 ft
800 to 1500m
200 to 500 ft
< 800m
< 200 ft
Symbols :   Thunderstorms  Fog  Heavy snow  Heavy precipitations  Wind > 20 kt






- Airport Elevation : 1673 ft
- IATA code : OGZ


URMO - Beslan

CURRENT METAR :
  • 280800Z 23002MPS 9999 NSC 23/16 Q1015 R09/010070 NOSIG RMK QFE718/0957

EXPIRED METARs :
  • 280730Z 30003MPS 9999 NSC 22/16 Q1016 R09/010070 NOSIG RMK QFE718/0957
  • 280700Z 28002MPS 230V310 9999 NSC 22/16 Q1016 R09/010070 NOSIG RMK QFE718/0957
  • 280630Z 27003MPS 230V340 9999 NSC 21/16 Q1016 R09/010070 NOSIG RMK QFE718/0958
  • 280600Z 29003MPS 250V350 9999 NSC 21/16 Q1016 R09/010070 NOSIG RMK QFE718/0958
  • 280530Z 29002MPS 9999 NSC 19/15 Q1016 R09/010070 NOSIG RMK QFE718/0958

TAF TAF URMO
Valid from the 28 at 06:00 until the 28 at 15:00 UTC


280500Z 2806/2815 10003G08MPS 9999 SCT030
URRV FIR / Europe



MET'MAP, your aeronautical weather chart ! - Copyright ORBIFLY December 2007 - Disclaimer

ORBIFLY MET'MAP TEAM :

Programming & Development : Alexandra Zaïnal
Concept & original design : Baudouin d'Aumeries
Assistance for programming : Marc-Olivier Méhu
Technical & hardware support : Manuel Goepfert

Contact : metmap@orbifly.com




SOURCES & CREDITS :

   NOAA       Earth
Advisory